Terminal Aerodrome Forecast
Issued by NWS Pueblo, CO

Home | Current Version | Previous Version | Text Only | Print | Product List | Glossary On
Versions: 1 2 3 4 5 6 7 8 9 10 11 12 13 14 15 16 17 18 19 20 21 22 23 24 25 26 27 28 29 30 31 32 33 34 35 36 37 38 39 40 41 42 43 44 45 46 47 48 49 50
000
FTUS45 KPUB 031436 AAB
TAFPUB
TAF AMD
KPUB 031436Z 0315/0412 28008KT P6SM FEW150
     FM031700 01015G25KT P6SM SCT040 BKN150
     FM032100 09014KT P6SM SCT020 BKN040
     FM032300 09010KT P6SM VCSH OVC020
     FM040300 09008KT 3SM -SN BR OVC015
     FM040900 03015G25KT 3SM -SN BR OVC025=

USA.gov is the U.S. government's official web portal to all federal, state and local government web resources and services.